Nearby METAR Reports


KPVF - Placerville, California, USA
Distance from station: E 5mi, 14km
Updated: 02/22/2018 11:55am
Overcast
Overcast
 Wind from S
Wind: S 8 mph , 13 km/h, Gust: 16 mph , 26 km/h
Temperature: 37°F , 3°C
Wind Chill: 31°F , -1°C
Dew Point: 36°F , 2°C
Humidity: 93%
Barometer: 30.14 inHg , 1020.7 hPa
Clouds: Overcast
Visibility: 10 miles , 16 km
Cloud details: Overcast 1100 ft
2018/02/22 19:55 KPVF 221955Z AUTO 18007G14KT 10SM OVC011 03/02 A3014 RMK AO1
KAUN - Auburn, California, USA
Distance from station: NE 37mi, 14km
Updated: 02/22/2018 12:15pm
Mostly cloudy
Mostly cloudy
 Wind from SW
Wind: SW 9 mph , 15 km/h
Temperature: 43°F , 6°C
Wind Chill: 38°F , 3°C
Dew Point: 32°F , 0°C
Humidity: 66%
Barometer: 30.16 inHg , 1021.3 hPa
Clouds: Mostly cloudy
Visibility: 10 miles , 16 km
Cloud details: Few Clouds 2800 ft
Partly cloudy 3400 ft
Mostly cloudy 4200 ft
2018/02/22 20:15 KAUN 222015Z AUTO 23008KT 10SM FEW028 SCT034 BKN042 06/00 A3016 RMK AO1
 
KMHR - Mather, California, USA
Distance from station: NNW 30mi, 23km
Updated: 02/22/2018 11:45am
Partly cloudy
Partly cloudy
 Wind from S
Wind: S 6 mph , 9 km/h
Temperature: 50°F , 10°C
Wind Chill: 48°F , 9°C
Dew Point: 32°F , 0°C
Humidity: 50%
Barometer: 30.20 inHg , 1022.7 hPa
Clouds: Partly cloudy
Visibility: 10 miles , 16 km
Cloud details: Partly cloudy 10000 ft
2018/02/22 19:45 KMHR 221945Z 18005KT 10SM SCT100 10/M00 A3020
KSAC - Sacramento, California, USA
Distance from station: WNW 45mi, 50km
Updated: 02/22/2018 11:53am
Clear
Clear
 Wind from SE
Wind: SE 9 mph , 15 km/h
Temperature: 52°F , 11°C
Dew Point: 32°F , 0°C
Humidity: 47%
Barometer: 30.20 inHg , 1022.7 hPa
Clouds: Clear
Visibility: 10 miles , 16 km
2018/02/22 19:53 KSAC 221953Z 14008KT 10SM CLR 11/00 A3020 RMK AO2 SLP227 T01060000 $
 
KSMF - Sacramento Metro, California, USA
Distance from station: NNE 50mi, 51km
Updated: 02/22/2018 11:53am
Mostly cloudy
Mostly cloudy
 Wind from SSE
Wind: SSE 8 mph , 13 km/h
Temperature: 52°F , 11°C
Dew Point: 34°F , 1°C
Humidity: 50%
Barometer: 30.19 inHg , 1022.4 hPa
Clouds: Mostly cloudy
Visibility: 10 miles , 16 km
Cloud details: Partly cloudy 8500 ft
Mostly cloudy 16000 ft
2018/02/22 19:53 KSMF 221953Z 15007KT 10SM SCT085 BKN160 11/01 A3019 RMK AO2 SLP222 T01060006
KBAB - Beale AFB - Marysville, California, USA
Distance from station: NW 21mi, 34km
Updated: 02/22/2018 11:56am
Overcast
Overcast
 Wind from S
Wind: S 10 mph , 17 km/h
Temperature: 48°F , 9°C
Wind Chill: 44°F , 7°C
Dew Point: 32°F , 0°C
Humidity: 54%
Barometer: 30.16 inHg , 1021.3 hPa
Clouds: Overcast
Visibility: 10 miles , 16 km
Cloud details: Mostly cloudy 7000 ft
Mostly cloudy 9000 ft
Overcast 12000 ft
2018/02/22 19:56 KBAB 221956Z AUTO 17009KT 10SM BKN070 BKN090 OVC120 09/00 A3016 RMK AO2 SLP217 T00940003 $
 
KOVE - Oroville, California, USA
Distance from station: ESE 80mi, 43km
Updated: 02/22/2018 11:53am
Clear
Clear
 Wind from SSE
Wind: SSE 14 mph , 22 km/h
Temperature: 50°F , 10°C
Wind Chill: 45°F , 7°C
Dew Point: 37°F , 3°C
Humidity: 62%
Barometer: 30.18 inHg , 1022 hPa
Clouds: Clear
Visibility: 10 miles , 16 km
2018/02/22 19:53 KOVE 221953Z AUTO 15012KT 10SM CLR 10/03 A3018 RMK AO2 SLP223 T01000028
KRDD - Redding, California, USA
Distance from station: SSE 225mi, 44km
Updated: 02/22/2018 11:53am
Overcast
Overcast
 Wind from S
Wind: S 6 mph , 9 km/h
Temperature: 46°F , 8°C
Wind Chill: 43°F , 6°C
Dew Point: 27°F , -3°C
Humidity: 46%
Barometer: 30.11 inHg , 1019.6 hPa
Clouds: Overcast
Visibility: 10 miles , 16 km
Cloud details: Partly cloudy 7000 ft
Overcast 9000 ft
2018/02/22 19:53 KRDD 221953Z 19005KT 10SM SCT070 OVC090 08/M03 A3011 RMK AO2 SLP198 T00831033
 
KTRK - Tahoe-Truckee, California, USA
Distance from station: NW 60mi, 49km
Updated: 02/22/2018 12:00pm

 
Visibility: 40 miles
2018/02/22 20:00 KTRK 222000Z 25009G18 1/2SM -SHSN OVC005 M04/M08 A2994
KTVL - South Lake Tahoe, California, USA
Distance from station: N 45mi, 44km
Updated: 02/22/2018 12:06pm
Heavy snow, Freezing, Fog, Overcast
Heavy snow, Freezing, Fog, Overcast
 Wind from SSW
Wind: SSW 14 mph , 22 km/h
Temperature: 19°F , -7°C
Wind Chill: 5°F , -15°C
Dew Point: 18°F , -8°C
Humidity: 93%
Barometer: 29.92 inHg , 1013.2 hPa
Summary: Heavy snow, Freezing, Fog
Clouds: Overcast
Visibility: 1/4 mile , 2 km
Cloud details: Mostly cloudy 800 ft
Overcast 3300 ft
2018/02/22 20:06 KTVL 222006Z AUTO 20012KT 1/4SM +SN FZFG BKN008 OVC033 M07/M08 A2992 RMK AO2 P0001 T10671083
 
KBLU - EMIGRANT GAP, California, USA
Distance from station: NNW 31mi, 50km
Updated: 02/22/2018 12:14pm
Light snow, Mist, Overcast
Light snow, Mist, Overcast
 Wind from varies
Wind: varies 6 mph , 9 km/h
Temperature: 25°F , -4°C
Wind Chill: 18°F , -8°C
Dew Point: 21°F , -6°C
Humidity: 86%
Barometer: 30.01 inHg , 1016.3 hPa
Summary: Light snow, Mist
Clouds: Overcast
Visibility: 1 1/4 miles , 2 km
Cloud details: Partly cloudy 200 ft
Mostly cloudy 600 ft
Overcast 1400 ft
2018/02/22 20:14 KBLU 222014Z AUTO VRB05KT 1 1/4SM -SN BR SCT002 BKN006 OVC014 M04/M06 A3001 RMK AO2 VIS 1/2V4 P0000 T10441056
KACV - Eureka, California, USA
Distance from station: ENE 387mi, 19km
Updated: 02/22/2018 12:02pm
Rain, Overcast
Rain, Overcast
 Wind from calm
Wind: Calm
Temperature: 43°F , 6°C
Dew Point: 37°F , 3°C
Humidity: 81%
Barometer: 30.23 inHg , 1023.7 hPa
Summary: Rain
Clouds: Overcast
Visibility: 4 miles , 6 km
Cloud details: Mostly cloudy 2400 ft
Mostly cloudy 3300 ft
Overcast 4300 ft
2018/02/22 20:02 KACV 222002Z AUTO 00000KT 4SM RA BKN024 BKN033 OVC043 06/03 A3023 RMK AO2 P0001 T00610028